sensor_id;sensor_type;location;lat;lon;timestamp;P1;durP1;ratioP1;P2;durP2;ratioP2
5898;SDS011;2975;50.956;6.962;2024-01-25T00:00:49;30.80;;;5.47;;
5898;SDS011;2975;50.956;6.962;2024-01-25T00:03:15;36.10;;;6.83;;
5898;SDS011;2975;50.956;6.962;2024-01-25T00:05:40;33.10;;;5.73;;
5898;SDS011;2975;50.956;6.962;2024-01-25T00:08:06;29.57;;;5.30;;
5898;SDS011;2975;50.956;6.962;2024-01-25T00:10:32;34.07;;;6.50;;
5898;SDS011;2975;50.956;6.962;2024-01-25T00:12:58;38.57;;;6.73;;
5898;SDS011;2975;50.956;6.962;2024-01-25T00:15:23;32.93;;;5.57;;
5898;SDS011;2975;50.956;6.962;2024-01-25T00:17:49;40.33;;;6.80;;
5898;SDS011;2975;50.956;6.962;2024-01-25T00:20:15;42.67;;;6.93;;
5898;SDS011;2975;50.956;6.962;2024-01-25T00:22:40;37.57;;;7.47;;
5898;SDS011;2975;50.956;6.962;2024-01-25T00:25:06;39.30;;;6.73;;
5898;SDS011;2975;50.956;6.962;2024-01-25T00:27:32;40.87;;;5.87;;
5898;SDS011;2975;50.956;6.962;2024-01-25T00:29:58;37.33;;;6.73;;
5898;SDS011;2975;50.956;6.962;2024-01-25T00:32:24;31.07;;;6.27;;
5898;SDS011;2975;50.956;6.962;2024-01-25T00:34:49;40.47;;;7.20;;
5898;SDS011;2975;50.956;6.962;2024-01-25T00:37:15;30.87;;;6.53;;
5898;SDS011;2975;50.956;6.962;2024-01-25T00:39:41;34.23;;;6.10;;
5898;SDS011;2975;50.956;6.962;2024-01-25T00:42:07;31.80;;;5.83;;
5898;SDS011;2975;50.956;6.962;2024-01-25T00:44:37;39.27;;;6.33;;
5898;SDS011;2975;50.956;6.962;2024-01-25T00:47:02;35.17;;;6.97;;
5898;SDS011;2975;50.956;6.962;2024-01-25T00:49:28;41.10;;;8.40;;
5898;SDS011;2975;50.956;6.962;2024-01-25T00:51:57;42.90;;;7.77;;
5898;SDS011;2975;50.956;6.962;2024-01-25T00:54:25;35.93;;;6.50;;
5898;SDS011;2975;50.956;6.962;2024-01-25T00:56:51;42.77;;;7.17;;
5898;SDS011;2975;50.956;6.962;2024-01-25T00:59:18;40.80;;;7.53;;
5898;SDS011;2975;50.956;6.962;2024-01-25T01:01:44;38.40;;;6.73;;
5898;SDS011;2975;50.956;6.962;2024-01-25T01:04:13;34.87;;;6.37;;
5898;SDS011;2975;50.956;6.962;2024-01-25T01:06:39;30.73;;;6.27;;
5898;SDS011;2975;50.956;6.962;2024-01-25T01:09:05;37.77;;;7.60;;
5898;SDS011;2975;50.956;6.962;2024-01-25T01:11:31;35.83;;;5.93;;
5898;SDS011;2975;50.956;6.962;2024-01-25T01:13:56;31.93;;;6.77;;
5898;SDS011;2975;50.956;6.962;2024-01-25T01:16:22;27.43;;;5.93;;
5898;SDS011;2975;50.956;6.962;2024-01-25T01:18:47;41.37;;;6.80;;
5898;SDS011;2975;50.956;6.962;2024-01-25T01:21:13;38.10;;;6.10;;
5898;SDS011;2975;50.956;6.962;2024-01-25T01:23:38;42.97;;;6.83;;
5898;SDS011;2975;50.956;6.962;2024-01-25T01:26:04;43.60;;;7.13;;
5898;SDS011;2975;50.956;6.962;2024-01-25T01:28:30;31.57;;;5.53;;
5898;SDS011;2975;50.956;6.962;2024-01-25T01:30:56;46.60;;;7.60;;
5898;SDS011;2975;50.956;6.962;2024-01-25T01:33:21;26.27;;;5.80;;
5898;SDS011;2975;50.956;6.962;2024-01-25T01:35:47;35.57;;;6.03;;
5898;SDS011;2975;50.956;6.962;2024-01-25T01:38:13;42.07;;;7.13;;
5898;SDS011;2975;50.956;6.962;2024-01-25T01:40:38;31.87;;;5.70;;
5898;SDS011;2975;50.956;6.962;2024-01-25T01:43:04;34.53;;;6.60;;
5898;SDS011;2975;50.956;6.962;2024-01-25T01:45:30;41.47;;;7.33;;
5898;SDS011;2975;50.956;6.962;2024-01-25T01:47:55;43.27;;;6.47;;
5898;SDS011;2975;50.956;6.962;2024-01-25T01:50:22;43.50;;;7.93;;
5898;SDS011;2975;50.956;6.962;2024-01-25T01:52:48;46.93;;;9.83;;
5898;SDS011;2975;50.956;6.962;2024-01-25T01:55:16;33.90;;;6.20;;
5898;SDS011;2975;50.956;6.962;2024-01-25T01:57:42;38.27;;;5.77;;
5898;SDS011;2975;50.956;6.962;2024-01-25T02:00:09;34.57;;;5.43;;
5898;SDS011;2975;50.956;6.962;2024-01-25T02:02:35;29.30;;;5.97;;
5898;SDS011;2975;50.956;6.962;2024-01-25T02:05:00;39.77;;;6.70;;
5898;SDS011;2975;50.956;6.962;2024-01-25T02:07:26;35.23;;;6.13;;
5898;SDS011;2975;50.956;6.962;2024-01-25T02:09:52;37.77;;;5.97;;
5898;SDS011;2975;50.956;6.962;2024-01-25T02:12:18;29.80;;;7.13;;
5898;SDS011;2975;50.956;6.962;2024-01-25T02:14:43;35.33;;;6.27;;
5898;SDS011;2975;50.956;6.962;2024-01-25T02:17:09;41.17;;;6.43;;
5898;SDS011;2975;50.956;6.962;2024-01-25T02:19:35;39.47;;;6.83;;
5898;SDS011;2975;50.956;6.962;2024-01-25T02:22:00;35.27;;;5.00;;
5898;SDS011;2975;50.956;6.962;2024-01-25T02:24:29;43.40;;;6.07;;
5898;SDS011;2975;50.956;6.962;2024-01-25T02:26:55;38.57;;;6.07;;
5898;SDS011;2975;50.956;6.962;2024-01-25T02:29:21;32.43;;;6.13;;
5898;SDS011;2975;50.956;6.962;2024-01-25T02:31:47;44.13;;;6.13;;
5898;SDS011;2975;50.956;6.962;2024-01-25T02:34:12;26.63;;;5.50;;
5898;SDS011;2975;50.956;6.962;2024-01-25T02:36:38;31.77;;;6.07;;
5898;SDS011;2975;50.956;6.962;2024-01-25T02:39:03;27.73;;;6.30;;
5898;SDS011;2975;50.956;6.962;2024-01-25T02:41:32;45.20;;;6.57;;
5898;SDS011;2975;50.956;6.962;2024-01-25T02:43:57;36.83;;;7.80;;
5898;SDS011;2975;50.956;6.962;2024-01-25T02:46:24;29.67;;;5.53;;
5898;SDS011;2975;50.956;6.962;2024-01-25T02:48:50;43.27;;;7.43;;
5898;SDS011;2975;50.956;6.962;2024-01-25T02:51:15;38.10;;;5.67;;
5898;SDS011;2975;50.956;6.962;2024-01-25T02:53:41;38.13;;;7.00;;
5898;SDS011;2975;50.956;6.962;2024-01-25T02:56:07;34.00;;;5.57;;
5898;SDS011;2975;50.956;6.962;2024-01-25T02:58:32;43.77;;;6.80;;
5898;SDS011;2975;50.956;6.962;2024-01-25T03:00:58;35.63;;;6.20;;
5898;SDS011;2975;50.956;6.962;2024-01-25T03:03:24;44.47;;;6.27;;
5898;SDS011;2975;50.956;6.962;2024-01-25T03:05:51;39.43;;;6.67;;
5898;SDS011;2975;50.956;6.962;2024-01-25T03:08:16;35.33;;;5.63;;
5898;SDS011;2975;50.956;6.962;2024-01-25T03:10:42;44.07;;;7.83;;
5898;SDS011;2975;50.956;6.962;2024-01-25T03:13:08;41.83;;;8.10;;
5898;SDS011;2975;50.956;6.962;2024-01-25T03:15:33;37.07;;;6.97;;
5898;SDS011;2975;50.956;6.962;2024-01-25T03:17:59;39.47;;;7.10;;
5898;SDS011;2975;50.956;6.962;2024-01-25T03:20:25;41.23;;;6.63;;
5898;SDS011;2975;50.956;6.962;2024-01-25T03:22:50;46.67;;;8.23;;
5898;SDS011;2975;50.956;6.962;2024-01-25T03:25:16;44.17;;;7.03;;
5898;SDS011;2975;50.956;6.962;2024-01-25T03:27:41;41.10;;;8.23;;
5898;SDS011;2975;50.956;6.962;2024-01-25T03:30:07;31.80;;;6.57;;
5898;SDS011;2975;50.956;6.962;2024-01-25T03:32:33;48.30;;;7.17;;
5898;SDS011;2975;50.956;6.962;2024-01-25T03:34:59;41.60;;;6.13;;
5898;SDS011;2975;50.956;6.962;2024-01-25T03:37:25;43.80;;;6.97;;
5898;SDS011;2975;50.956;6.962;2024-01-25T03:39:50;42.13;;;6.87;;
5898;SDS011;2975;50.956;6.962;2024-01-25T03:42:16;42.93;;;8.33;;
5898;SDS011;2975;50.956;6.962;2024-01-25T03:44:42;53.90;;;7.77;;
5898;SDS011;2975;50.956;6.962;2024-01-25T03:47:09;41.53;;;6.40;;
5898;SDS011;2975;50.956;6.962;2024-01-25T03:49:35;45.93;;;7.67;;
5898;SDS011;2975;50.956;6.962;2024-01-25T03:52:01;55.70;;;8.97;;
5898;SDS011;2975;50.956;6.962;2024-01-25T03:54:27;36.53;;;6.50;;
5898;SDS011;2975;50.956;6.962;2024-01-25T03:56:53;33.17;;;7.43;;
5898;SDS011;2975;50.956;6.962;2024-01-25T03:59:19;43.83;;;6.90;;
5898;SDS011;2975;50.956;6.962;2024-01-25T04:01:44;31.43;;;6.80;;
5898;SDS011;2975;50.956;6.962;2024-01-25T04:04:11;45.77;;;7.87;;
5898;SDS011;2975;50.956;6.962;2024-01-25T04:06:40;42.10;;;7.00;;
5898;SDS011;2975;50.956;6.962;2024-01-25T04:09:13;38.53;;;7.40;;
5898;SDS011;2975;50.956;6.962;2024-01-25T04:11:40;36.30;;;6.47;;
5898;SDS011;2975;50.956;6.962;2024-01-25T04:14:06;34.83;;;6.90;;
5898;SDS011;2975;50.956;6.962;2024-01-25T04:16:32;37.97;;;6.47;;
5898;SDS011;2975;50.956;6.962;2024-01-25T04:18:58;46.97;;;7.17;;
5898;SDS011;2975;50.956;6.962;2024-01-25T04:21:23;46.47;;;6.83;;
5898;SDS011;2975;50.956;6.962;2024-01-25T04:23:49;42.40;;;7.93;;
5898;SDS011;2975;50.956;6.962;2024-01-25T04:26:15;45.60;;;7.60;;
5898;SDS011;2975;50.956;6.962;2024-01-25T04:28:41;47.40;;;7.13;;
5898;SDS011;2975;50.956;6.962;2024-01-25T04:31:07;47.33;;;7.23;;
5898;SDS011;2975;50.956;6.962;2024-01-25T04:33:33;32.60;;;7.20;;
5898;SDS011;2975;50.956;6.962;2024-01-25T04:35:59;41.40;;;7.80;;
5898;SDS011;2975;50.956;6.962;2024-01-25T04:38:24;50.33;;;7.93;;
5898;SDS011;2975;50.956;6.962;2024-01-25T04:40:50;44.53;;;7.03;;
5898;SDS011;2975;50.956;6.962;2024-01-25T04:43:16;41.77;;;7.37;;
5898;SDS011;2975;50.956;6.962;2024-01-25T04:45:41;45.70;;;7.50;;
5898;SDS011;2975;50.956;6.962;2024-01-25T04:48:07;44.57;;;7.70;;
5898;SDS011;2975;50.956;6.962;2024-01-25T04:50:33;52.07;;;9.40;;
5898;SDS011;2975;50.956;6.962;2024-01-25T04:53:01;54.80;;;8.33;;
5898;SDS011;2975;50.956;6.962;2024-01-25T04:55:27;45.37;;;8.77;;
5898;SDS011;2975;50.956;6.962;2024-01-25T04:57:53;51.47;;;8.73;;
5898;SDS011;2975;50.956;6.962;2024-01-25T05:00:18;44.63;;;8.90;;
5898;SDS011;2975;50.956;6.962;2024-01-25T05:02:46;51.57;;;8.37;;
5898;SDS011;2975;50.956;6.962;2024-01-25T05:05:12;36.87;;;7.30;;
5898;SDS011;2975;50.956;6.962;2024-01-25T05:07:38;42.07;;;9.03;;
5898;SDS011;2975;50.956;6.962;2024-01-25T05:10:04;37.40;;;7.60;;
5898;SDS011;2975;50.956;6.962;2024-01-25T05:12:30;41.03;;;8.43;;
5898;SDS011;2975;50.956;6.962;2024-01-25T05:14:56;48.77;;;7.33;;
5898;SDS011;2975;50.956;6.962;2024-01-25T05:17:21;51.70;;;8.43;;
5898;SDS011;2975;50.956;6.962;2024-01-25T05:19:47;47.77;;;9.57;;
5898;SDS011;2975;50.956;6.962;2024-01-25T05:22:12;54.50;;;8.70;;
5898;SDS011;2975;50.956;6.962;2024-01-25T05:24:56;39.80;;;6.83;;
5898;SDS011;2975;50.956;6.962;2024-01-25T05:27:22;43.07;;;6.60;;
5898;SDS011;2975;50.956;6.962;2024-01-25T05:29:48;44.57;;;8.77;;
5898;SDS011;2975;50.956;6.962;2024-01-25T05:32:14;40.73;;;8.87;;
5898;SDS011;2975;50.956;6.962;2024-01-25T05:34:39;44.77;;;8.00;;
5898;SDS011;2975;50.956;6.962;2024-01-25T05:37:05;40.77;;;7.20;;
5898;SDS011;2975;50.956;6.962;2024-01-25T05:39:31;39.87;;;6.80;;
5898;SDS011;2975;50.956;6.962;2024-01-25T05:41:57;64.30;;;8.83;;
5898;SDS011;2975;50.956;6.962;2024-01-25T05:44:23;53.80;;;7.73;;
5898;SDS011;2975;50.956;6.962;2024-01-25T05:46:48;52.37;;;12.67;;
5898;SDS011;2975;50.956;6.962;2024-01-25T05:49:14;33.60;;;6.70;;
5898;SDS011;2975;50.956;6.962;2024-01-25T05:51:40;43.37;;;8.27;;
5898;SDS011;2975;50.956;6.962;2024-01-25T05:54:05;46.67;;;7.57;;
5898;SDS011;2975;50.956;6.962;2024-01-25T05:56:31;37.37;;;6.97;;
5898;SDS011;2975;50.956;6.962;2024-01-25T05:58:57;54.23;;;8.07;;
5898;SDS011;2975;50.956;6.962;2024-01-25T06:01:22;41.57;;;6.80;;
5898;SDS011;2975;50.956;6.962;2024-01-25T06:03:48;47.03;;;7.07;;
5898;SDS011;2975;50.956;6.962;2024-01-25T06:06:13;38.07;;;6.50;;
5898;SDS011;2975;50.956;6.962;2024-01-25T06:08:39;44.53;;;7.47;;
5898;SDS011;2975;50.956;6.962;2024-01-25T06:11:05;47.10;;;7.00;;
5898;SDS011;2975;50.956;6.962;2024-01-25T06:13:31;36.87;;;5.87;;
5898;SDS011;2975;50.956;6.962;2024-01-25T06:15:56;38.83;;;7.30;;
5898;SDS011;2975;50.956;6.962;2024-01-25T06:18:22;47.37;;;6.77;;
5898;SDS011;2975;50.956;6.962;2024-01-25T06:20:48;53.43;;;6.97;;
5898;SDS011;2975;50.956;6.962;2024-01-25T06:23:13;48.80;;;7.63;;
5898;SDS011;2975;50.956;6.962;2024-01-25T06:25:39;64.43;;;8.57;;
5898;SDS011;2975;50.956;6.962;2024-01-25T06:28:04;46.07;;;7.00;;
5898;SDS011;2975;50.956;6.962;2024-01-25T06:30:30;56.93;;;9.73;;
5898;SDS011;2975;50.956;6.962;2024-01-25T06:32:56;57.87;;;8.37;;
5898;SDS011;2975;50.956;6.962;2024-01-25T06:35:21;52.10;;;6.93;;
5898;SDS011;2975;50.956;6.962;2024-01-25T06:37:47;35.67;;;7.87;;
5898;SDS011;2975;50.956;6.962;2024-01-25T06:40:13;45.73;;;6.73;;
5898;SDS011;2975;50.956;6.962;2024-01-25T06:42:38;42.30;;;7.07;;
5898;SDS011;2975;50.956;6.962;2024-01-25T06:45:04;49.37;;;7.03;;
5898;SDS011;2975;50.956;6.962;2024-01-25T06:47:30;38.70;;;6.60;;
5898;SDS011;2975;50.956;6.962;2024-01-25T06:49:55;53.47;;;7.83;;
5898;SDS011;2975;50.956;6.962;2024-01-25T06:52:21;40.80;;;6.83;;
5898;SDS011;2975;50.956;6.962;2024-01-25T06:54:47;43.23;;;6.87;;
5898;SDS011;2975;50.956;6.962;2024-01-25T06:57:13;42.50;;;7.53;;
5898;SDS011;2975;50.956;6.962;2024-01-25T06:59:39;47.40;;;6.63;;
5898;SDS011;2975;50.956;6.962;2024-01-25T07:02:05;45.23;;;6.47;;
5898;SDS011;2975;50.956;6.962;2024-01-25T07:04:31;46.93;;;8.80;;
5898;SDS011;2975;50.956;6.962;2024-01-25T07:06:57;33.47;;;7.27;;
5898;SDS011;2975;50.956;6.962;2024-01-25T07:09:24;28.07;;;5.83;;
5898;SDS011;2975;50.956;6.962;2024-01-25T07:11:50;42.13;;;6.90;;
5898;SDS011;2975;50.956;6.962;2024-01-25T07:14:16;41.50;;;7.57;;
5898;SDS011;2975;50.956;6.962;2024-01-25T07:16:42;36.00;;;7.07;;
5898;SDS011;2975;50.956;6.962;2024-01-25T07:19:07;38.97;;;6.63;;
5898;SDS011;2975;50.956;6.962;2024-01-25T07:21:33;37.63;;;6.93;;
5898;SDS011;2975;50.956;6.962;2024-01-25T07:24:00;57.10;;;8.67;;
5898;SDS011;2975;50.956;6.962;2024-01-25T07:26:27;37.63;;;6.93;;
5898;SDS011;2975;50.956;6.962;2024-01-25T07:28:53;43.03;;;7.50;;
5898;SDS011;2975;50.956;6.962;2024-01-25T07:31:23;48.47;;;7.27;;
5898;SDS011;2975;50.956;6.962;2024-01-25T07:33:52;39.40;;;7.87;;
5898;SDS011;2975;50.956;6.962;2024-01-25T07:36:18;41.10;;;7.33;;
5898;SDS011;2975;50.956;6.962;2024-01-25T07:38:44;39.80;;;7.17;;
5898;SDS011;2975;50.956;6.962;2024-01-25T07:41:11;49.17;;;9.33;;
5898;SDS011;2975;50.956;6.962;2024-01-25T07:43:38;44.70;;;7.33;;
5898;SDS011;2975;50.956;6.962;2024-01-25T07:46:03;41.23;;;7.50;;
5898;SDS011;2975;50.956;6.962;2024-01-25T07:48:29;40.80;;;7.93;;
5898;SDS011;2975;50.956;6.962;2024-01-25T07:50:55;47.50;;;6.67;;
5898;SDS011;2975;50.956;6.962;2024-01-25T07:53:20;58.10;;;8.73;;
5898;SDS011;2975;50.956;6.962;2024-01-25T07:55:46;42.00;;;6.70;;
5898;SDS011;2975;50.956;6.962;2024-01-25T07:58:11;42.77;;;8.10;;
5898;SDS011;2975;50.956;6.962;2024-01-25T08:00:37;42.07;;;8.63;;
5898;SDS011;2975;50.956;6.962;2024-01-25T08:03:02;50.63;;;10.20;;
5898;SDS011;2975;50.956;6.962;2024-01-25T08:05:28;37.90;;;9.47;;
5898;SDS011;2975;50.956;6.962;2024-01-25T08:07:54;42.70;;;8.47;;
5898;SDS011;2975;50.956;6.962;2024-01-25T08:10:19;45.00;;;8.87;;
5898;SDS011;2975;50.956;6.962;2024-01-25T08:12:45;37.60;;;7.37;;
5898;SDS011;2975;50.956;6.962;2024-01-25T08:15:12;39.47;;;9.77;;
5898;SDS011;2975;50.956;6.962;2024-01-25T08:17:38;46.00;;;9.73;;
5898;SDS011;2975;50.956;6.962;2024-01-25T08:20:04;51.13;;;10.90;;
5898;SDS011;2975;50.956;6.962;2024-01-25T08:22:34;56.73;;;9.40;;
5898;SDS011;2975;50.956;6.962;2024-01-25T08:25:00;60.13;;;10.03;;
5898;SDS011;2975;50.956;6.962;2024-01-25T08:27:25;48.40;;;8.57;;
5898;SDS011;2975;50.956;6.962;2024-01-25T08:29:51;44.13;;;10.53;;
5898;SDS011;2975;50.956;6.962;2024-01-25T08:32:16;41.90;;;8.80;;
5898;SDS011;2975;50.956;6.962;2024-01-25T08:34:42;38.33;;;8.23;;
5898;SDS011;2975;50.956;6.962;2024-01-25T08:37:08;31.93;;;8.70;;
5898;SDS011;2975;50.956;6.962;2024-01-25T08:39:33;41.33;;;8.80;;
5898;SDS011;2975;50.956;6.962;2024-01-25T08:41:59;37.53;;;8.57;;
5898;SDS011;2975;50.956;6.962;2024-01-25T08:44:27;48.50;;;10.30;;
5898;SDS011;2975;50.956;6.962;2024-01-25T08:46:53;53.30;;;9.77;;
5898;SDS011;2975;50.956;6.962;2024-01-25T08:49:18;43.87;;;9.43;;
5898;SDS011;2975;50.956;6.962;2024-01-25T08:51:44;43.23;;;10.60;;
5898;SDS011;2975;50.956;6.962;2024-01-25T08:54:09;57.67;;;10.90;;
5898;SDS011;2975;50.956;6.962;2024-01-25T08:56:35;37.83;;;8.77;;
5898;SDS011;2975;50.956;6.962;2024-01-25T08:59:01;47.20;;;10.80;;
5898;SDS011;2975;50.956;6.962;2024-01-25T09:01:26;40.97;;;9.83;;
5898;SDS011;2975;50.956;6.962;2024-01-25T09:03:52;46.50;;;9.50;;
5898;SDS011;2975;50.956;6.962;2024-01-25T09:06:18;55.10;;;10.63;;
5898;SDS011;2975;50.956;6.962;2024-01-25T09:08:43;37.23;;;9.20;;
5898;SDS011;2975;50.956;6.962;2024-01-25T09:11:09;43.63;;;10.17;;
5898;SDS011;2975;50.956;6.962;2024-01-25T09:13:35;36.60;;;10.93;;
5898;SDS011;2975;50.956;6.962;2024-01-25T09:16:00;44.97;;;11.67;;
5898;SDS011;2975;50.956;6.962;2024-01-25T09:18:26;41.67;;;12.60;;
5898;SDS011;2975;50.956;6.962;2024-01-25T09:20:51;47.93;;;10.53;;
5898;SDS011;2975;50.956;6.962;2024-01-25T09:23:18;44.43;;;11.13;;
5898;SDS011;2975;50.956;6.962;2024-01-25T09:25:44;40.50;;;11.50;;
5898;SDS011;2975;50.956;6.962;2024-01-25T09:28:10;35.10;;;10.80;;
5898;SDS011;2975;50.956;6.962;2024-01-25T09:30:39;40.33;;;11.07;;
5898;SDS011;2975;50.956;6.962;2024-01-25T09:33:06;42.50;;;11.17;;
5898;SDS011;2975;50.956;6.962;2024-01-25T09:35:32;44.10;;;10.33;;
5898;SDS011;2975;50.956;6.962;2024-01-25T09:37:57;43.17;;;11.40;;
5898;SDS011;2975;50.956;6.962;2024-01-25T09:40:23;37.93;;;10.07;;
5898;SDS011;2975;50.956;6.962;2024-01-25T09:42:49;36.83;;;10.13;;
5898;SDS011;2975;50.956;6.962;2024-01-25T09:45:17;35.57;;;10.77;;
5898;SDS011;2975;50.956;6.962;2024-01-25T09:47:46;40.70;;;11.60;;
5898;SDS011;2975;50.956;6.962;2024-01-25T09:50:13;42.03;;;10.57;;
5898;SDS011;2975;50.956;6.962;2024-01-25T09:52:39;35.30;;;9.87;;
5898;SDS011;2975;50.956;6.962;2024-01-25T09:55:11;38.90;;;11.20;;
5898;SDS011;2975;50.956;6.962;2024-01-25T09:57:43;39.47;;;10.23;;
5898;SDS011;2975;50.956;6.962;2024-01-25T10:00:14;38.40;;;12.03;;
5898;SDS011;2975;50.956;6.962;2024-01-25T10:02:40;36.73;;;10.60;;
5898;SDS011;2975;50.956;6.962;2024-01-25T10:05:06;35.17;;;9.87;;
5898;SDS011;2975;50.956;6.962;2024-01-25T10:07:50;45.30;;;10.67;;
5898;SDS011;2975;50.956;6.962;2024-01-25T10:10:15;37.83;;;10.13;;
5898;SDS011;2975;50.956;6.962;2024-01-25T10:12:41;37.37;;;9.80;;
5898;SDS011;2975;50.956;6.962;2024-01-25T10:15:08;35.33;;;9.83;;
5898;SDS011;2975;50.956;6.962;2024-01-25T10:17:34;31.30;;;9.73;;
5898;SDS011;2975;50.956;6.962;2024-01-25T10:20:00;33.20;;;10.30;;
5898;SDS011;2975;50.956;6.962;2024-01-25T10:22:26;38.90;;;10.37;;
5898;SDS011;2975;50.956;6.962;2024-01-25T10:24:52;40.47;;;10.77;;
5898;SDS011;2975;50.956;6.962;2024-01-25T10:27:21;41.97;;;10.03;;
5898;SDS011;2975;50.956;6.962;2024-01-25T10:29:46;38.43;;;11.13;;
5898;SDS011;2975;50.956;6.962;2024-01-25T10:32:12;41.53;;;11.07;;
5898;SDS011;2975;50.956;6.962;2024-01-25T10:34:38;48.93;;;11.07;;
5898;SDS011;2975;50.956;6.962;2024-01-25T10:37:07;32.03;;;9.63;;
5898;SDS011;2975;50.956;6.962;2024-01-25T10:39:33;27.20;;;8.43;;
5898;SDS011;2975;50.956;6.962;2024-01-25T10:41:59;32.23;;;9.20;;
5898;SDS011;2975;50.956;6.962;2024-01-25T10:44:25;34.87;;;9.40;;
5898;SDS011;2975;50.956;6.962;2024-01-25T10:46:51;36.00;;;10.30;;
5898;SDS011;2975;50.956;6.962;2024-01-25T10:49:19;38.73;;;9.67;;
5898;SDS011;2975;50.956;6.962;2024-01-25T10:51:45;35.73;;;8.80;;
5898;SDS011;2975;50.956;6.962;2024-01-25T10:54:12;38.10;;;9.40;;
5898;SDS011;2975;50.956;6.962;2024-01-25T10:56:41;38.07;;;9.87;;
5898;SDS011;2975;50.956;6.962;2024-01-25T10:59:07;36.30;;;9.90;;
5898;SDS011;2975;50.956;6.962;2024-01-25T11:01:33;37.60;;;10.50;;
5898;SDS011;2975;50.956;6.962;2024-01-25T11:04:00;31.23;;;8.27;;
5898;SDS011;2975;50.956;6.962;2024-01-25T11:06:26;36.53;;;8.43;;
5898;SDS011;2975;50.956;6.962;2024-01-25T11:09:03;29.37;;;8.73;;
5898;SDS011;2975;50.956;6.962;2024-01-25T11:11:30;38.93;;;11.37;;
5898;SDS011;2975;50.956;6.962;2024-01-25T11:13:57;36.10;;;8.90;;
5898;SDS011;2975;50.956;6.962;2024-01-25T11:16:30;36.30;;;9.07;;
5898;SDS011;2975;50.956;6.962;2024-01-25T11:18:57;29.30;;;9.20;;
5898;SDS011;2975;50.956;6.962;2024-01-25T11:21:38;43.40;;;9.43;;
5898;SDS011;2975;50.956;6.962;2024-01-25T11:24:20;27.20;;;7.43;;
5898;SDS011;2975;50.956;6.962;2024-01-25T11:26:51;40.37;;;9.17;;
5898;SDS011;2975;50.956;6.962;2024-01-25T11:29:20;34.80;;;8.77;;
5898;SDS011;2975;50.956;6.962;2024-01-25T11:31:48;30.87;;;7.77;;
5898;SDS011;2975;50.956;6.962;2024-01-25T11:34:14;30.73;;;7.83;;
5898;SDS011;2975;50.956;6.962;2024-01-25T11:36:41;37.47;;;9.47;;
5898;SDS011;2975;50.956;6.962;2024-01-25T11:39:10;32.30;;;7.90;;
5898;SDS011;2975;50.956;6.962;2024-01-25T11:41:37;34.10;;;8.23;;
5898;SDS011;2975;50.956;6.962;2024-01-25T11:44:03;36.87;;;9.90;;
5898;SDS011;2975;50.956;6.962;2024-01-25T11:46:32;29.77;;;7.83;;
5898;SDS011;2975;50.956;6.962;2024-01-25T11:48:58;33.90;;;9.33;;
5898;SDS011;2975;50.956;6.962;2024-01-25T11:51:24;35.47;;;8.60;;
5898;SDS011;2975;50.956;6.962;2024-01-25T11:53:50;35.37;;;8.33;;
5898;SDS011;2975;50.956;6.962;2024-01-25T11:56:17;31.30;;;8.07;;
5898;SDS011;2975;50.956;6.962;2024-01-25T11:58:46;30.03;;;7.50;;
5898;SDS011;2975;50.956;6.962;2024-01-25T12:01:12;32.27;;;7.67;;
5898;SDS011;2975;50.956;6.962;2024-01-25T12:03:40;29.20;;;8.83;;
5898;SDS011;2975;50.956;6.962;2024-01-25T12:06:06;36.70;;;9.17;;
5898;SDS011;2975;50.956;6.962;2024-01-25T12:08:34;28.37;;;8.27;;
5898;SDS011;2975;50.956;6.962;2024-01-25T12:11:10;29.17;;;7.30;;
5898;SDS011;2975;50.956;6.962;2024-01-25T12:13:38;25.80;;;7.07;;
5898;SDS011;2975;50.956;6.962;2024-01-25T12:16:05;29.30;;;5.80;;
5898;SDS011;2975;50.956;6.962;2024-01-25T12:18:31;25.07;;;6.17;;
5898;SDS011;2975;50.956;6.962;2024-01-25T12:21:00;28.40;;;6.33;;
5898;SDS011;2975;50.956;6.962;2024-01-25T12:23:34;25.53;;;5.60;;
5898;SDS011;2975;50.956;6.962;2024-01-25T12:26:04;29.70;;;6.60;;
5898;SDS011;2975;50.956;6.962;2024-01-25T12:28:31;26.57;;;6.57;;
5898;SDS011;2975;50.956;6.962;2024-01-25T12:30:58;32.30;;;7.33;;
5898;SDS011;2975;50.956;6.962;2024-01-25T12:33:25;23.97;;;6.27;;
5898;SDS011;2975;50.956;6.962;2024-01-25T12:35:51;25.97;;;6.27;;
5898;SDS011;2975;50.956;6.962;2024-01-25T12:38:18;23.43;;;5.37;;
5898;SDS011;2975;50.956;6.962;2024-01-25T12:40:46;23.37;;;5.90;;
5898;SDS011;2975;50.956;6.962;2024-01-25T12:43:12;29.00;;;6.73;;
5898;SDS011;2975;50.956;6.962;2024-01-25T12:45:39;23.90;;;5.87;;
5898;SDS011;2975;50.956;6.962;2024-01-25T12:48:04;26.30;;;5.97;;
5898;SDS011;2975;50.956;6.962;2024-01-25T12:50:31;27.33;;;6.10;;
5898;SDS011;2975;50.956;6.962;2024-01-25T12:52:57;32.10;;;6.93;;
5898;SDS011;2975;50.956;6.962;2024-01-25T12:55:24;20.50;;;5.80;;
5898;SDS011;2975;50.956;6.962;2024-01-25T12:57:50;22.20;;;5.53;;
5898;SDS011;2975;50.956;6.962;2024-01-25T13:00:15;21.07;;;7.17;;
5898;SDS011;2975;50.956;6.962;2024-01-25T13:02:41;26.27;;;6.00;;
5898;SDS011;2975;50.956;6.962;2024-01-25T13:05:07;23.00;;;5.33;;
5898;SDS011;2975;50.956;6.962;2024-01-25T13:07:33;23.07;;;5.87;;
5898;SDS011;2975;50.956;6.962;2024-01-25T13:09:59;22.00;;;4.97;;
5898;SDS011;2975;50.956;6.962;2024-01-25T13:12:24;21.80;;;6.20;;
5898;SDS011;2975;50.956;6.962;2024-01-25T13:14:50;24.43;;;5.73;;
5898;SDS011;2975;50.956;6.962;2024-01-25T13:17:15;20.47;;;5.60;;
5898;SDS011;2975;50.956;6.962;2024-01-25T13:19:41;29.23;;;5.13;;
5898;SDS011;2975;50.956;6.962;2024-01-25T13:22:06;20.27;;;5.20;;
5898;SDS011;2975;50.956;6.962;2024-01-25T13:24:32;25.47;;;5.23;;
5898;SDS011;2975;50.956;6.962;2024-01-25T13:26:57;25.33;;;4.60;;
5898;SDS011;2975;50.956;6.962;2024-01-25T13:29:23;21.43;;;4.83;;
5898;SDS011;2975;50.956;6.962;2024-01-25T13:31:49;24.30;;;6.27;;
5898;SDS011;2975;50.956;6.962;2024-01-25T13:34:14;29.70;;;5.93;;
5898;SDS011;2975;50.956;6.962;2024-01-25T13:36:41;19.27;;;5.43;;
5898;SDS011;2975;50.956;6.962;2024-01-25T13:39:07;20.33;;;4.90;;
5898;SDS011;2975;50.956;6.962;2024-01-25T13:41:34;21.93;;;5.27;;
5898;SDS011;2975;50.956;6.962;2024-01-25T13:43:59;17.13;;;3.93;;
5898;SDS011;2975;50.956;6.962;2024-01-25T13:46:25;22.47;;;4.43;;
5898;SDS011;2975;50.956;6.962;2024-01-25T13:48:51;21.57;;;4.63;;
5898;SDS011;2975;50.956;6.962;2024-01-25T13:51:16;26.23;;;5.50;;
5898;SDS011;2975;50.956;6.962;2024-01-25T13:53:42;20.33;;;4.80;;
5898;SDS011;2975;50.956;6.962;2024-01-25T13:56:08;17.93;;;4.23;;
5898;SDS011;2975;50.956;6.962;2024-01-25T13:58:33;23.10;;;5.43;;
5898;SDS011;2975;50.956;6.962;2024-01-25T14:00:59;17.80;;;4.80;;
5898;SDS011;2975;50.956;6.962;2024-01-25T14:03:24;21.43;;;5.37;;
5898;SDS011;2975;50.956;6.962;2024-01-25T14:05:50;23.87;;;4.87;;
5898;SDS011;2975;50.956;6.962;2024-01-25T14:08:15;17.63;;;4.70;;
5898;SDS011;2975;50.956;6.962;2024-01-25T14:10:41;19.77;;;4.83;;
5898;SDS011;2975;50.956;6.962;2024-01-25T14:13:07;24.33;;;3.93;;
5898;SDS011;2975;50.956;6.962;2024-01-25T14:15:33;19.47;;;4.20;;
5898;SDS011;2975;50.956;6.962;2024-01-25T14:17:59;23.63;;;5.13;;
5898;SDS011;2975;50.956;6.962;2024-01-25T14:20:25;14.67;;;4.20;;
5898;SDS011;2975;50.956;6.962;2024-01-25T14:22:50;17.23;;;3.97;;
5898;SDS011;2975;50.956;6.962;2024-01-25T14:25:16;21.43;;;4.10;;
5898;SDS011;2975;50.956;6.962;2024-01-25T14:27:42;11.37;;;4.00;;
5898;SDS011;2975;50.956;6.962;2024-01-25T14:30:07;16.50;;;4.10;;
5898;SDS011;2975;50.956;6.962;2024-01-25T14:32:33;19.13;;;4.57;;
5898;SDS011;2975;50.956;6.962;2024-01-25T14:34:59;16.80;;;3.90;;
5898;SDS011;2975;50.956;6.962;2024-01-25T14:37:24;26.57;;;4.80;;
5898;SDS011;2975;50.956;6.962;2024-01-25T14:39:50;19.07;;;4.87;;
5898;SDS011;2975;50.956;6.962;2024-01-25T14:42:15;18.77;;;4.67;;
5898;SDS011;2975;50.956;6.962;2024-01-25T14:44:44;19.40;;;4.93;;
5898;SDS011;2975;50.956;6.962;2024-01-25T14:47:10;24.30;;;5.20;;
5898;SDS011;2975;50.956;6.962;2024-01-25T14:49:37;24.93;;;4.90;;
5898;SDS011;2975;50.956;6.962;2024-01-25T14:52:03;20.87;;;4.97;;
5898;SDS011;2975;50.956;6.962;2024-01-25T14:54:29;20.80;;;4.73;;